Time;durP1;ratioP1;P1;durP2;ratioP2;P2;SDS_P1;SDS_P2;PMS_P1;PMS_P2;Temp;Humidity;BMP_temperature;BMP_pressure;BME280_temperature;BME280_humidity;BME280_pressure;Samples;Min_cycle;Max_cycle;Signal;HPM_P1;HPM_P2
2022/04/27 00:00:33;;;;;;;14.07;2.72;;;;;;;;;;5051869;28;20200;-69
2022/04/27 00:03:01;;;;;;;14.85;3.10;;;;;;;;;;5051696;28;20665;-69
2022/04/27 00:05:30;;;;;;;16.08;3.50;;;;;;;;;;5051690;28;20201;-69
2022/04/27 00:07:58;;;;;;;16.40;3.08;;;;;;;;;;5051759;28;20197;-69
2022/04/27 00:10:26;;;;;;;14.75;2.70;;;;;;;;;;5051821;28;20209;-69
2022/04/27 00:12:53;;;;;;;14.57;2.35;;;;;;;;;;5051743;28;20208;-69
2022/04/27 00:15:25;;;;;;;16.25;2.72;;;;;;;;;;5051259;28;20201;-69
2022/04/27 00:17:52;;;;;;;13.35;2.90;;;;;;;;;;5051488;28;20284;-69
2022/04/27 00:20:20;;;;;;;12.55;2.20;;;;;;;;;;5051951;28;20200;-69
2022/04/27 00:22:47;;;;;;;13.52;2.80;;;;;;;;;;5051627;28;20650;-69
2022/04/27 00:25:16;;;;;;;14.18;2.63;;;;;;;;;;5051533;28;20204;-69
2022/04/27 00:27:44;;;;;;;15.10;3.47;;;;;;;;;;5051886;28;20204;-69
2022/04/27 00:30:11;;;;;;;13.15;2.85;;;;;;;;;;5051449;28;20204;-69
2022/04/27 00:32:40;;;;;;;12.90;2.80;;;;;;;;;;5051468;28;20777;-69
2022/04/27 00:35:09;;;;;;;14.93;2.50;;;;;;;;;;5051262;28;20197;-69
2022/04/27 00:37:36;;;;;;;11.95;1.90;;;;;;;;;;5051547;28;20255;-69
2022/04/27 00:40:05;;;;;;;13.15;2.50;;;;;;;;;;5051421;28;20201;-69
2022/04/27 00:42:32;;;;;;;11.80;2.20;;;;;;;;;;5051196;28;20209;-69
2022/04/27 00:45:02;;;;;;;13.35;2.30;;;;;;;;;;5051640;28;20244;-69
2022/04/27 00:47:30;;;;;;;13.25;2.22;;;;;;;;;;5051340;28;20663;-69
2022/04/27 00:50:02;;;;;;;14.90;2.60;;;;;;;;;;5051507;28;20206;-69
2022/04/27 00:52:30;;;;;;;11.95;2.17;;;;;;;;;;5053528;28;20229;-69
2022/04/27 00:54:58;;;;;;;13.98;3.00;;;;;;;;;;5055194;28;20204;-69
2022/04/27 00:57:27;;;;;;;13.35;2.95;;;;;;;;;;5054521;28;20245;-69
2022/04/27 00:59:54;;;;;;;22.05;2.60;;;;;;;;;;5055220;28;20232;-69
2022/04/27 01:02:22;;;;;;;13.55;2.80;;;;;;;;;;5054911;28;20208;-69
2022/04/27 01:04:49;;;;;;;14.80;2.33;;;;;;;;;;5055045;28;20201;-69
2022/04/27 01:07:18;;;;;;;13.15;2.67;;;;;;;;;;5054452;28;20197;-69
2022/04/27 01:09:46;;;;;;;12.32;2.45;;;;;;;;;;5054713;28;20197;-69
2022/04/27 01:12:14;;;;;;;13.55;2.70;;;;;;;;;;5054834;28;20316;-69
2022/04/27 01:14:43;;;;;;;14.20;2.33;;;;;;;;;;5054556;28;20197;-69
2022/04/27 01:17:10;;;;;;;14.68;2.65;;;;;;;;;;5054723;28;20590;-70
2022/04/27 01:19:38;;;;;;;14.25;2.30;;;;;;;;;;5054930;28;20236;-69
2022/04/27 01:22:07;;;;;;;20.83;2.70;;;;;;;;;;5054494;28;20212;-69
2022/04/27 01:24:35;;;;;;;14.45;2.35;;;;;;;;;;5054438;28;20198;-69
2022/04/27 01:27:03;;;;;;;12.73;2.60;;;;;;;;;;5054428;28;20204;-69
2022/04/27 01:29:30;;;;;;;12.98;2.42;;;;;;;;;;5054406;28;20206;-69
2022/04/27 01:32:00;;;;;;;14.57;2.92;;;;;;;;;;5054253;28;20229;-69
2022/04/27 01:34:28;;;;;;;13.13;2.83;;;;;;;;;;5054414;28;20574;-69
2022/04/27 01:37:59;;;;;;;18.42;2.80;;;;;;;;;;5054275;28;20234;-69
2022/04/27 01:39:45;;;;;;;15.43;2.90;;;;;;;;;;5054357;28;20213;-69
2022/04/27 01:42:12;;;;;;;11.75;2.10;;;;;;;;;;5054322;28;20224;-69
2022/04/27 01:44:40;;;;;;;12.70;3.05;;;;;;;;;;5054466;28;20204;-69
2022/04/27 01:47:08;;;;;;;13.27;2.85;;;;;;;;;;5054126;28;20659;-69
2022/04/27 01:49:35;;;;;;;13.68;2.97;;;;;;;;;;5054211;28;20201;-69
2022/04/27 01:54:49;;;;;;;13.43;2.50;;;;;;;;;;5054511;28;20583;-69
2022/04/27 01:57:16;;;;;;;15.75;2.17;;;;;;;;;;5053391;28;20221;-68
2022/04/27 01:59:44;;;;;;;13.18;2.35;;;;;;;;;;5053588;28;20204;-69
2022/04/27 02:02:11;;;;;;;12.52;2.35;;;;;;;;;;5053707;28;20782;-69
2022/04/27 02:04:40;;;;;;;13.25;2.38;;;;;;;;;;5053144;28;20201;-69
2022/04/27 02:07:08;;;;;;;13.82;2.40;;;;;;;;;;5054122;28;20259;-69
2022/04/27 02:09:36;;;;;;;12.13;2.28;;;;;;;;;;5053608;28;20231;-69
2022/04/27 02:12:05;;;;;;;12.07;2.13;;;;;;;;;;5053451;28;20221;-69
2022/04/27 02:14:33;;;;;;;17.27;2.65;;;;;;;;;;5054063;28;20202;-69
2022/04/27 02:17:00;;;;;;;12.40;2.60;;;;;;;;;;5054154;28;20236;-69
2022/04/27 02:19:28;;;;;;;12.25;2.55;;;;;;;;;;5053230;28;20201;-69
2022/04/27 02:21:57;;;;;;;12.57;2.67;;;;;;;;;;5053471;28;20206;-69
2022/04/27 02:24:26;;;;;;;12.20;2.05;;;;;;;;;;5053393;28;20205;-69
2022/04/27 02:26:54;;;;;;;14.20;2.80;;;;;;;;;;5053266;28;20564;-69
2022/04/27 02:29:23;;;;;;;11.70;2.38;;;;;;;;;;5053023;28;20279;-69
2022/04/27 02:31:50;;;;;;;12.90;3.10;;;;;;;;;;5053016;28;20224;-69
2022/04/27 02:34:18;;;;;;;13.57;2.67;;;;;;;;;;5053545;28;20281;-69
2022/04/27 02:36:46;;;;;;;14.27;2.50;;;;;;;;;;5053144;28;20699;-69
2022/04/27 02:39:13;;;;;;;16.45;3.00;;;;;;;;;;5053141;28;20284;-70
2022/04/27 02:41:42;;;;;;;15.50;2.42;;;;;;;;;;5052922;28;20197;-69
2022/04/27 02:44:09;;;;;;;14.23;2.72;;;;;;;;;;5053152;28;20198;-69
2022/04/27 02:46:38;;;;;;;12.85;2.40;;;;;;;;;;5052876;28;20202;-69
2022/04/27 02:51:55;;;;;;;12.20;2.20;;;;;;;;;;5052748;28;20649;-69
2022/04/27 02:54:24;;;;;;;13.35;2.90;;;;;;;;;;5053166;28;20193;-69
2022/04/27 02:56:51;;;;;;;14.70;3.15;;;;;;;;;;5052852;28;20217;-69
2022/04/27 02:59:19;;;;;;;15.10;2.85;;;;;;;;;;5052672;28;20206;-69
2022/04/27 03:01:48;;;;;;;14.27;2.60;;;;;;;;;;5053057;28;20216;-69
2022/04/27 03:04:16;;;;;;;12.40;2.40;;;;;;;;;;5052452;28;20259;-69
2022/04/27 03:06:44;;;;;;;13.90;2.50;;;;;;;;;;5052859;28;20200;-69
2022/04/27 03:09:12;;;;;;;12.55;2.60;;;;;;;;;;5052285;28;20679;-69
2022/04/27 03:11:40;;;;;;;11.70;2.47;;;;;;;;;;5052905;28;20587;-69
2022/04/27 03:14:07;;;;;;;13.32;2.60;;;;;;;;;;5052468;28;20208;-69
2022/04/27 03:16:34;;;;;;;13.20;3.05;;;;;;;;;;5051520;28;20296;-69
2022/04/27 03:19:03;;;;;;;13.13;3.08;;;;;;;;;;5052158;28;20682;-69
2022/04/27 03:21:32;;;;;;;14.05;2.88;;;;;;;;;;5052522;28;20201;-69
2022/04/27 03:24:00;;;;;;;15.65;3.00;;;;;;;;;;5052188;28;20736;-69
2022/04/27 03:26:28;;;;;;;15.38;2.55;;;;;;;;;;5052108;28;20197;-69
2022/04/27 03:28:55;;;;;;;13.75;2.42;;;;;;;;;;5052516;28;20202;-69
2022/04/27 03:31:23;;;;;;;14.93;2.80;;;;;;;;;;5052015;28;20201;-69
2022/04/27 03:33:50;;;;;;;12.40;2.45;;;;;;;;;;5052015;28;20197;-69
2022/04/27 03:36:19;;;;;;;12.70;2.60;;;;;;;;;;5051822;28;20717;-69
2022/04/27 03:38:48;;;;;;;14.55;2.40;;;;;;;;;;5052277;28;20576;-69
2022/04/27 03:41:17;;;;;;;11.93;2.70;;;;;;;;;;5051862;28;20250;-69
2022/04/27 03:43:45;;;;;;;13.57;2.70;;;;;;;;;;5052011;28;20255;-71
2022/04/27 03:46:13;;;;;;;12.80;2.95;;;;;;;;;;5051893;28;20205;-69
2022/04/27 03:48:40;;;;;;;13.68;3.50;;;;;;;;;;5051134;28;20232;-69
2022/04/27 03:51:08;;;;;;;12.27;2.95;;;;;;;;;;5051939;28;20204;-69
2022/04/27 03:53:37;;;;;;;13.57;2.33;;;;;;;;;;5051848;28;20325;-69
2022/04/27 03:56:05;;;;;;;14.05;3.15;;;;;;;;;;5051780;28;20219;-70
2022/04/27 03:58:32;;;;;;;13.20;2.70;;;;;;;;;;5051350;28;20221;-69
2022/04/27 04:01:00;;;;;;;14.00;3.70;;;;;;;;;;5051956;28;20197;-69
2022/04/27 04:03:28;;;;;;;19.55;4.95;;;;;;;;;;5051679;28;20212;-69
2022/04/27 04:05:55;;;;;;;14.27;3.30;;;;;;;;;;5051656;28;20202;-70
2022/04/27 04:08:23;;;;;;;12.87;3.00;;;;;;;;;;5051651;28;20437;-69
2022/04/27 04:10:51;;;;;;;14.40;3.17;;;;;;;;;;5051724;28;20534;-70
2022/04/27 04:13:19;;;;;;;12.03;2.57;;;;;;;;;;5051208;28;20493;-70
2022/04/27 04:15:46;;;;;;;13.33;2.97;;;;;;;;;;5051889;28;20483;-70
2022/04/27 04:18:14;;;;;;;12.97;2.67;;;;;;;;;;5051803;28;20444;-70
2022/04/27 04:20:41;;;;;;;13.23;2.87;;;;;;;;;;5051693;28;20467;-70
2022/04/27 04:23:09;;;;;;;13.83;2.50;;;;;;;;;;5051844;28;20448;-69
2022/04/27 04:28:31;;;;;;;13.40;3.03;;;;;;;;;;5055651;28;20482;-70
2022/04/27 04:30:59;;;;;;;13.30;2.77;;;;;;;;;;5055667;28;20466;-70
2022/04/27 04:33:27;;;;;;;17.00;3.97;;;;;;;;;;5055130;28;20857;-70
2022/04/27 04:35:55;;;;;;;13.37;2.87;;;;;;;;;;5055526;28;21106;-70
2022/04/27 04:38:22;;;;;;;12.50;2.50;;;;;;;;;;5055589;28;20446;-70
2022/04/27 04:40:49;;;;;;;15.40;2.70;;;;;;;;;;5055603;28;20446;-70
2022/04/27 04:43:17;;;;;;;14.40;2.97;;;;;;;;;;5055322;28;20457;-69
2022/04/27 04:45:46;;;;;;;15.10;3.07;;;;;;;;;;5055278;28;20809;-70
2022/04/27 04:48:13;;;;;;;15.53;2.83;;;;;;;;;;5055185;28;20948;-72
2022/04/27 04:50:41;;;;;;;13.73;2.23;;;;;;;;;;5055037;28;20440;-71
2022/04/27 04:53:08;;;;;;;13.50;2.23;;;;;;;;;;5055192;28;21075;-70
2022/04/27 04:55:36;;;;;;;17.93;2.50;;;;;;;;;;5055221;28;20455;-72
2022/04/27 04:58:03;;;;;;;14.87;2.70;;;;;;;;;;5054896;28;21042;-70
2022/04/27 05:00:31;;;;;;;16.00;2.43;;;;;;;;;;5055083;28;20446;-71
2022/04/27 05:03:00;;;;;;;11.93;1.97;;;;;;;;;;5054998;28;20443;-70
2022/04/27 05:05:27;;;;;;;13.90;2.10;;;;;;;;;;5054491;28;20811;-71
2022/04/27 05:07:56;;;;;;;15.70;2.13;;;;;;;;;;5054704;28;20448;-70
2022/04/27 05:10:23;;;;;;;14.90;2.10;;;;;;;;;;5054674;28;20446;-71
2022/04/27 05:12:50;;;;;;;13.10;2.30;;;;;;;;;;5054732;28;20992;-70
2022/04/27 05:15:18;;;;;;;13.20;2.10;;;;;;;;;;5054604;28;20448;-71
2022/04/27 05:17:45;;;;;;;13.20;2.20;;;;;;;;;;5054569;28;20454;-71
2022/04/27 05:20:14;;;;;;;13.23;2.40;;;;;;;;;;5054553;28;20439;-71
2022/04/27 05:22:42;;;;;;;14.53;2.10;;;;;;;;;;5054463;28;20965;-70
2022/04/27 05:25:10;;;;;;;13.53;2.20;;;;;;;;;;5054369;28;20442;-73
2022/04/27 05:27:38;;;;;;;14.20;2.60;;;;;;;;;;5054501;28;20454;-71
2022/04/27 05:32:51;;;;;;;15.13;2.57;;;;;;;;;;5054359;28;20478;-71
2022/04/27 05:35:20;;;;;;;14.87;2.30;;;;;;;;;;5053779;28;20439;-71
2022/04/27 05:37:47;;;;;;;14.60;2.20;;;;;;;;;;5054153;28;20442;-71
2022/04/27 05:40:16;;;;;;;12.50;2.37;;;;;;;;;;5053929;28;20454;-71
2022/04/27 05:42:45;;;;;;;15.27;2.20;;;;;;;;;;5054125;28;20465;-71
2022/04/27 05:45:12;;;;;;;13.37;2.27;;;;;;;;;;5054086;28;20447;-71
2022/04/27 05:47:40;;;;;;;13.47;2.30;;;;;;;;;;5054177;28;20882;-71
2022/04/27 05:50:07;;;;;;;12.60;2.27;;;;;;;;;;5054233;28;20474;-71
2022/04/27 05:52:49;;;;;;;13.80;2.63;;;;;;;;;;5053860;28;20483;-71
2022/04/27 05:55:16;;;;;;;14.93;3.10;;;;;;;;;;5053661;28;20964;-71
2022/04/27 05:57:43;;;;;;;14.83;2.47;;;;;;;;;;5054526;28;20906;-71
2022/04/27 06:00:11;;;;;;;12.67;2.17;;;;;;;;;;5053865;28;20806;-71
2022/04/27 06:02:39;;;;;;;14.50;2.23;;;;;;;;;;5054098;28;20540;-71
2022/04/27 06:05:07;;;;;;;12.70;2.20;;;;;;;;;;5053888;28;20472;-70
2022/04/27 06:07:36;;;;;;;13.90;2.20;;;;;;;;;;5053485;28;20451;-71
2022/04/27 06:10:05;;;;;;;17.30;2.93;;;;;;;;;;5053557;28;20439;-71
2022/04/27 06:12:36;;;;;;;16.33;2.70;;;;;;;;;;5053721;28;20502;-71
2022/04/27 06:15:04;;;;;;;14.80;3.03;;;;;;;;;;5053739;28;20468;-71
2022/04/27 06:17:32;;;;;;;13.77;2.50;;;;;;;;;;5053336;28;20451;-71
2022/04/27 06:19:59;;;;;;;20.20;2.57;;;;;;;;;;5053407;28;20446;-72
2022/04/27 06:22:27;;;;;;;16.60;2.23;;;;;;;;;;5053478;28;20461;-71
2022/04/27 06:24:54;;;;;;;16.10;2.43;;;;;;;;;;5053363;28;21008;-70
2022/04/27 06:27:23;;;;;;;16.07;2.50;;;;;;;;;;5053197;28;20988;-71
2022/04/27 06:29:51;;;;;;;13.90;2.20;;;;;;;;;;5053405;28;20442;-71
2022/04/27 06:32:19;;;;;;;13.80;2.50;;;;;;;;;;5053396;28;20431;-71
2022/04/27 06:34:46;;;;;;;14.90;2.20;;;;;;;;;;5053147;28;20582;-71
2022/04/27 06:37:13;;;;;;;12.87;2.40;;;;;;;;;;5053067;28;20490;-71
2022/04/27 06:39:42;;;;;;;15.53;2.63;;;;;;;;;;5053171;28;20454;-71
2022/04/27 06:42:10;;;;;;;14.87;2.30;;;;;;;;;;5053043;28;20871;-71
2022/04/27 06:44:39;;;;;;;14.30;2.00;;;;;;;;;;5053218;28;20479;-71
2022/04/27 06:47:07;;;;;;;13.20;2.20;;;;;;;;;;5052848;28;20451;-71
2022/04/27 06:49:34;;;;;;;14.30;2.67;;;;;;;;;;5052460;28;20444;-71
2022/04/27 06:52:02;;;;;;;13.70;2.23;;;;;;;;;;5052834;28;20449;-71
2022/04/27 06:54:29;;;;;;;14.27;2.23;;;;;;;;;;5052965;28;20545;-71
2022/04/27 06:56:57;;;;;;;13.97;2.03;;;;;;;;;;5052593;28;20466;-71
2022/04/27 06:59:24;;;;;;;13.70;2.40;;;;;;;;;;5052565;28;20423;-72
2022/04/27 07:01:55;;;;;;;17.23;2.67;;;;;;;;;;5052512;28;20829;-71
2022/04/27 07:04:23;;;;;;;15.23;3.20;;;;;;;;;;5052764;28;20479;-72
2022/04/27 07:06:51;;;;;;;16.77;3.97;;;;;;;;;;5052900;28;20436;-71
2022/04/27 07:09:18;;;;;;;15.10;3.20;;;;;;;;;;5052229;28;20440;-72
2022/04/27 07:11:46;;;;;;;14.70;2.70;;;;;;;;;;5052447;28;20440;-71
2022/04/27 07:14:16;;;;;;;17.60;2.30;;;;;;;;;;5052297;28;20475;-72
2022/04/27 07:16:43;;;;;;;13.27;2.10;;;;;;;;;;5052777;28;20447;-71
2022/04/27 07:19:12;;;;;;;17.70;2.23;;;;;;;;;;5052179;28;20948;-71
2022/04/27 07:21:40;;;;;;;15.17;2.37;;;;;;;;;;5052768;28;20526;-71
2022/04/27 07:24:08;;;;;;;14.57;2.40;;;;;;;;;;5052262;28;20448;-71
2022/04/27 07:26:36;;;;;;;13.27;2.30;;;;;;;;;;5052325;28;20479;-71
2022/04/27 07:29:03;;;;;;;14.87;2.17;;;;;;;;;;5052046;28;20457;-71
2022/04/27 07:31:32;;;;;;;15.27;2.43;;;;;;;;;;5052058;28;20437;-71
2022/04/27 07:33:59;;;;;;;14.60;2.40;;;;;;;;;;5052168;28;20502;-71
2022/04/27 07:36:28;;;;;;;13.63;2.10;;;;;;;;;;5051960;28;20567;-71
2022/04/27 07:38:57;;;;;;;13.90;2.33;;;;;;;;;;5052126;28;20450;-71
2022/04/27 07:41:24;;;;;;;13.70;2.07;;;;;;;;;;5051985;28;20444;-70
2022/04/27 07:43:51;;;;;;;15.80;2.20;;;;;;;;;;5052364;28;20445;-71
2022/04/27 07:46:19;;;;;;;12.90;1.80;;;;;;;;;;5051951;28;20440;-71
2022/04/27 07:48:46;;;;;;;12.67;1.90;;;;;;;;;;5051842;28;20818;-71
2022/04/27 07:51:14;;;;;;;16.90;2.00;;;;;;;;;;5051894;28;20458;-71
2022/04/27 07:53:43;;;;;;;13.80;2.50;;;;;;;;;;5051949;28;20484;-71
2022/04/27 07:56:11;;;;;;;12.33;2.03;;;;;;;;;;5051688;28;20459;-70
2022/04/27 07:58:38;;;;;;;17.67;2.20;;;;;;;;;;5051321;28;20468;-71
2022/04/27 08:01:07;;;;;;;15.63;2.00;;;;;;;;;;5051313;28;20443;-70
2022/04/27 08:03:34;;;;;;;19.80;2.17;;;;;;;;;;5051430;28;20446;-70
2022/04/27 08:06:03;;;;;;;15.03;2.03;;;;;;;;;;5051742;28;20972;-70
2022/04/27 08:08:30;;;;;;;12.27;1.80;;;;;;;;;;5051614;28;20511;-71
2022/04/27 08:10:59;;;;;;;18.37;2.50;;;;;;;;;;5052037;28;20608;-70
2022/04/27 08:13:27;;;;;;;25.03;6.33;;;;;;;;;;5051294;28;20489;-70
2022/04/27 08:15:55;;;;;;;21.37;5.80;;;;;;;;;;5051632;28;20446;-70
2022/04/27 08:18:22;;;;;;;17.13;3.90;;;;;;;;;;5051658;28;20444;-71
2022/04/27 08:23:36;;;;;;;13.37;1.97;;;;;;;;;;5051484;28;20488;-71
2022/04/27 08:26:05;;;;;;;17.80;2.87;;;;;;;;;;5051515;28;20471;-70
2022/04/27 08:28:34;;;;;;;17.87;3.57;;;;;;;;;;5051717;28;20447;-70
2022/04/27 08:31:01;;;;;;;16.83;4.23;;;;;;;;;;5051700;28;20447;-70
2022/04/27 08:33:29;;;;;;;15.00;2.53;;;;;;;;;;5051169;28;20482;-70
2022/04/27 08:35:57;;;;;;;17.43;2.83;;;;;;;;;;5051213;28;21004;-71
2022/04/27 08:38:25;;;;;;;14.63;2.97;;;;;;;;;;5052030;28;20523;-71
2022/04/27 08:40:54;;;;;;;14.60;2.20;;;;;;;;;;5051674;28;20444;-70
2022/04/27 08:43:23;;;;;;;12.80;2.30;;;;;;;;;;5051232;28;20455;-71
2022/04/27 08:45:52;;;;;;;20.93;2.30;;;;;;;;;;5051424;28;20439;-70
2022/04/27 08:48:21;;;;;;;16.43;2.40;;;;;;;;;;5051198;28;20972;-71
2022/04/27 08:50:50;;;;;;;14.73;2.80;;;;;;;;;;5051764;28;20431;-70
2022/04/27 08:53:18;;;;;;;14.70;2.13;;;;;;;;;;5051119;28;20444;-71
2022/04/27 08:55:45;;;;;;;13.90;2.67;;;;;;;;;;5051271;28;20445;-70
2022/04/27 08:58:14;;;;;;;13.73;2.20;;;;;;;;;;5051051;28;20830;-71
2022/04/27 09:00:43;;;;;;;13.77;2.73;;;;;;;;;;5051300;28;20960;-70
2022/04/27 09:03:28;;;;;;;12.70;2.60;;;;;;;;;;5050994;28;20805;-70
2022/04/27 09:05:58;;;;;;;13.10;2.53;;;;;;;;;;5051667;28;20435;-70
2022/04/27 09:08:26;;;;;;;14.10;2.00;;;;;;;;;;5051203;28;20977;-70
2022/04/27 09:11:08;;;;;;;14.53;2.50;;;;;;;;;;5051070;28;20528;-70
2022/04/27 09:13:37;;;;;;;14.13;2.63;;;;;;;;;;5052676;28;20952;-69
2022/04/27 09:16:06;;;;;;;14.00;2.07;;;;;;;;;;5055418;28;20462;-70
2022/04/27 09:21:33;;;;;;;16.93;2.00;;;;;;;;;;5054449;28;20453;-71
2022/04/27 09:24:04;;;;;;;15.73;1.90;;;;;;;;;;5054453;28;20450;-71
2022/04/27 09:26:32;;;;;;;15.93;1.77;;;;;;;;;;5054391;28;20446;-70
2022/04/27 09:28:59;;;;;;;16.20;1.87;;;;;;;;;;5054467;28;20966;-70
2022/04/27 09:31:30;;;;;;;13.90;1.80;;;;;;;;;;5054209;28;20448;-71
2022/04/27 09:34:01;;;;;;;12.33;1.80;;;;;;;;;;5054308;28;20488;-70
2022/04/27 09:36:29;;;;;;;14.00;1.80;;;;;;;;;;5054388;28;20478;-70
2022/04/27 09:38:57;;;;;;;13.40;2.20;;;;;;;;;;5054531;28;20531;-71
2022/04/27 09:41:38;;;;;;;13.00;1.80;;;;;;;;;;5054072;28;20435;-70
2022/04/27 09:44:05;;;;;;;15.87;1.93;;;;;;;;;;5054235;28;20447;-70
2022/04/27 09:46:40;;;;;;;13.33;1.90;;;;;;;;;;5054176;28;20471;-70
2022/04/27 09:49:14;;;;;;;14.80;2.17;;;;;;;;;;5054134;28;20439;-70
2022/04/27 09:51:48;;;;;;;13.27;1.63;;;;;;;;;;5054009;28;20450;-70
2022/04/27 09:54:19;;;;;;;13.37;1.90;;;;;;;;;;5054329;28;20512;-70
2022/04/27 09:56:49;;;;;;;12.80;1.90;;;;;;;;;;5053785;28;20462;-71
2022/04/27 09:59:17;;;;;;;15.77;2.00;;;;;;;;;;5053637;28;20443;-71
2022/04/27 10:01:47;;;;;;;16.90;2.00;;;;;;;;;;5054034;28;21003;-71
2022/04/27 10:04:20;;;;;;;12.40;1.70;;;;;;;;;;5053813;28;20449;-71
2022/04/27 10:06:47;;;;;;;15.47;1.80;;;;;;;;;;5053997;28;20461;-71
2022/04/27 10:09:15;;;;;;;14.67;1.73;;;;;;;;;;5053362;28;20436;-71
2022/04/27 10:11:43;;;;;;;13.70;2.00;;;;;;;;;;5053534;28;20442;-70
2022/04/27 10:14:11;;;;;;;13.23;2.17;;;;;;;;;;5053757;28;20838;-70
2022/04/27 10:16:39;;;;;;;12.90;1.80;;;;;;;;;;5053870;28;20909;-71
2022/04/27 10:19:12;;;;;;;16.70;1.93;;;;;;;;;;5053584;28;20495;-71
2022/04/27 10:21:43;;;;;;;15.70;2.07;;;;;;;;;;5053817;28;20969;-70
2022/04/27 10:24:11;;;;;;;14.57;2.33;;;;;;;;;;5053180;28;20438;-71
2022/04/27 10:26:40;;;;;;;14.80;1.70;;;;;;;;;;5053308;28;20510;-71
2022/04/27 10:29:09;;;;;;;15.40;1.90;;;;;;;;;;5053793;28;20472;-71
2022/04/27 10:31:55;;;;;;;12.70;1.60;;;;;;;;;;5053367;28;20523;-71
2022/04/27 10:34:25;;;;;;;15.53;1.70;;;;;;;;;;5053186;28;20479;-71
2022/04/27 10:36:53;;;;;;;14.43;1.63;;;;;;;;;;5053507;28;20486;-71
2022/04/27 10:39:21;;;;;;;15.90;2.20;;;;;;;;;;5052823;28;20452;-71
2022/04/27 10:42:19;;;;;;;15.30;2.07;;;;;;;;;;5052997;28;20452;-71
2022/04/27 10:45:19;;;;;;;14.83;1.83;;;;;;;;;;5053180;28;20444;-71
2022/04/27 10:47:46;;;;;;;17.73;1.70;;;;;;;;;;4972638;28;20479;-71
2022/04/27 10:50:38;;;;;;;12.70;1.50;;;;;;;;;;4972141;28;20451;-71
2022/04/27 10:53:23;;;;;;;15.50;2.07;;;;;;;;;;5012226;28;20535;-71
2022/04/27 10:55:54;;;;;;;16.47;1.73;;;;;;;;;;5053272;28;20481;-71
2022/04/27 10:58:34;;;;;;;18.40;1.97;;;;;;;;;;5052356;28;20475;-71
2022/04/27 11:01:26;;;;;;;17.43;2.00;;;;;;;;;;5052684;28;20456;-71
2022/04/27 11:03:58;;;;;;;14.00;2.33;;;;;;;;;;5053377;28;20851;-71
2022/04/27 11:06:26;;;;;;;18.53;2.33;;;;;;;;;;5052557;28;20448;-71
2022/04/27 11:09:01;;;;;;;13.90;1.90;;;;;;;;;;5052596;28;20977;-71
2022/04/27 11:11:28;;;;;;;14.10;1.77;;;;;;;;;;5052362;28;20453;-71
2022/04/27 11:14:00;;;;;;;13.00;1.60;;;;;;;;;;5052606;28;20927;-71
2022/04/27 11:16:27;;;;;;;13.70;1.83;;;;;;;;;;5052571;28;20455;-72
2022/04/27 11:18:55;;;;;;;15.17;1.60;;;;;;;;;;5052461;28;20936;-71
2022/04/27 11:21:24;;;;;;;17.53;1.93;;;;;;;;;;5052411;28;20435;-71
2022/04/27 11:23:51;;;;;;;14.07;1.80;;;;;;;;;;5052446;28;20440;-71
2022/04/27 11:26:21;;;;;;;12.17;1.60;;;;;;;;;;5052392;28;20589;-71
2022/04/27 11:28:48;;;;;;;13.70;1.60;;;;;;;;;;5052179;28;20450;-71
2022/04/27 11:31:17;;;;;;;14.00;1.70;;;;;;;;;;5052132;28;20924;-71
2022/04/27 11:33:44;;;;;;;14.73;2.10;;;;;;;;;;5052185;28;20444;-71
2022/04/27 11:36:22;;;;;;;14.20;1.87;;;;;;;;;;5051289;28;20623;-72
2022/04/27 11:38:49;;;;;;;12.73;2.03;;;;;;;;;;5052063;28;20447;-71
2022/04/27 11:41:18;;;;;;;12.43;1.63;;;;;;;;;;5052058;28;20433;-71
2022/04/27 11:43:48;;;;;;;14.70;2.20;;;;;;;;;;5052440;28;20844;-71
2022/04/27 11:46:16;;;;;;;13.73;1.90;;;;;;;;;;5051890;28;20455;-72
2022/04/27 11:48:48;;;;;;;15.40;2.43;;;;;;;;;;5052377;28;20794;-72
2022/04/27 11:51:15;;;;;;;16.53;1.87;;;;;;;;;;5051600;28;20444;-72
2022/04/27 11:53:45;;;;;;;13.87;1.97;;;;;;;;;;5051796;28;20442;-71
2022/04/27 11:56:13;;;;;;;13.47;1.70;;;;;;;;;;5052729;28;20474;-72
2022/04/27 11:58:40;;;;;;;15.13;2.40;;;;;;;;;;5051927;28;20462;-72
2022/04/27 12:01:09;;;;;;;13.97;1.93;;;;;;;;;;5052148;28;20983;-72
2022/04/27 12:03:41;;;;;;;16.50;2.20;;;;;;;;;;5051991;28;20892;-72
2022/04/27 12:06:09;;;;;;;13.43;2.33;;;;;;;;;;5051987;28;20443;-71
2022/04/27 12:08:42;;;;;;;13.57;2.00;;;;;;;;;;5051922;28;20531;-72
2022/04/27 12:11:10;;;;;;;14.53;2.07;;;;;;;;;;5051529;28;20441;-73
2022/04/27 12:13:38;;;;;;;15.30;1.97;;;;;;;;;;5052085;28;20444;-72
2022/04/27 12:16:06;;;;;;;13.30;2.07;;;;;;;;;;5051630;28;20521;-72
2022/04/27 12:18:34;;;;;;;15.47;2.27;;;;;;;;;;5051559;28;20470;-71
2022/04/27 12:21:02;;;;;;;16.10;3.30;;;;;;;;;;5051884;28;20443;-72
2022/04/27 12:23:39;;;;;;;12.37;1.87;;;;;;;;;;5051762;28;20434;-72
2022/04/27 12:26:07;;;;;;;14.93;2.83;;;;;;;;;;5051688;28;20979;-71
2022/04/27 12:28:44;;;;;;;14.97;2.30;;;;;;;;;;5051466;28;20439;-71
2022/04/27 12:31:11;;;;;;;13.90;2.03;;;;;;;;;;5051419;28;20463;-73
2022/04/27 12:33:43;;;;;;;14.77;1.80;;;;;;;;;;5052281;28;20458;-71
2022/04/27 12:39:00;;;;;;;15.23;1.90;;;;;;;;;;5051534;28;20524;-72
2022/04/27 12:41:32;;;;;;;14.83;1.83;;;;;;;;;;5051255;28;20444;-71
2022/04/27 12:44:06;;;;;;;13.33;1.90;;;;;;;;;;5051296;28;20524;-72
2022/04/27 12:46:33;;;;;;;13.40;1.90;;;;;;;;;;5051379;28;20969;-72
2022/04/27 12:49:04;;;;;;;17.00;1.90;;;;;;;;;;5054508;28;20461;-72
2022/04/27 12:51:33;;;;;;;15.40;2.23;;;;;;;;;;5055065;28;20977;-71
2022/04/27 12:54:01;;;;;;;14.20;1.90;;;;;;;;;;5055157;28;20440;-71
2022/04/27 12:56:32;;;;;;;15.60;1.90;;;;;;;;;;5055262;28;20848;-72
2022/04/27 12:59:04;;;;;;;16.53;2.00;;;;;;;;;;5055076;28;20466;-72
2022/04/27 13:01:31;;;;;;;13.67;1.87;;;;;;;;;;5054661;28;20889;-72
2022/04/27 13:03:59;;;;;;;12.73;1.80;;;;;;;;;;5055213;28;20437;-72
2022/04/27 13:06:30;;;;;;;14.70;1.80;;;;;;;;;;5054866;28;20462;-71
2022/04/27 13:11:55;;;;;;;16.10;2.13;;;;;;;;;;5054831;28;20949;-72
2022/04/27 13:11:56;;;;;;;14.93;1.87;;;;;;;;;;5054868;28;20439;-72
2022/04/27 13:14:25;;;;;;;17.87;2.00;;;;;;;;;;5054900;28;20799;-72
2022/04/27 13:16:52;;;;;;;15.10;1.80;;;;;;;;;;5054667;28;20866;-72
2022/04/27 13:19:20;;;;;;;12.27;1.80;;;;;;;;;;5054347;28;20443;-72
2022/04/27 13:21:49;;;;;;;14.80;1.90;;;;;;;;;;5054773;28;20444;-72
2022/04/27 13:24:17;;;;;;;14.63;2.10;;;;;;;;;;5055005;28;20462;-72
2022/04/27 13:26:45;;;;;;;14.63;2.43;;;;;;;;;;5054451;28;20836;-72
2022/04/27 13:29:12;;;;;;;13.37;1.60;;;;;;;;;;5054529;28;20458;-72
2022/04/27 13:31:40;;;;;;;13.77;1.80;;;;;;;;;;5054810;28;20891;-72
2022/04/27 13:34:07;;;;;;;13.27;2.07;;;;;;;;;;5054329;28;20449;-72
2022/04/27 13:36:34;;;;;;;16.57;1.93;;;;;;;;;;5054132;28;20495;-73
2022/04/27 13:39:03;;;;;;;14.47;2.23;;;;;;;;;;5054429;28;20468;-71
2022/04/27 13:41:31;;;;;;;12.10;1.60;;;;;;;;;;5054181;28;20460;-72
2022/04/27 13:43:58;;;;;;;12.60;1.70;;;;;;;;;;5054729;28;20442;-72
2022/04/27 13:46:26;;;;;;;14.83;2.23;;;;;;;;;;5054444;28;20466;-72
2022/04/27 13:48:53;;;;;;;16.40;1.83;;;;;;;;;;5054306;28;20445;-72
2022/04/27 13:51:20;;;;;;;14.27;2.13;;;;;;;;;;5053851;28;20537;-72
2022/04/27 13:53:48;;;;;;;15.30;2.03;;;;;;;;;;5053970;28;20452;-72
2022/04/27 13:56:17;;;;;;;14.90;2.23;;;;;;;;;;5053856;28;20490;-72
2022/04/27 13:58:45;;;;;;;13.17;1.90;;;;;;;;;;5053390;28;20466;-71
2022/04/27 14:01:12;;;;;;;15.27;2.63;;;;;;;;;;5053370;28;20447;-72
2022/04/27 14:03:39;;;;;;;14.07;1.63;;;;;;;;;;5053831;28;20444;-72
2022/04/27 14:06:07;;;;;;;13.30;1.90;;;;;;;;;;5054062;28;20534;-72
2022/04/27 14:08:34;;;;;;;11.97;1.73;;;;;;;;;;5053705;28;20445;-72
2022/04/27 14:11:02;;;;;;;15.33;2.20;;;;;;;;;;5053626;28;20456;-72
2022/04/27 14:13:30;;;;;;;17.73;3.17;;;;;;;;;;5053363;28;20452;-72
2022/04/27 14:18:42;;;;;;;15.00;2.33;;;;;;;;;;5054151;28;20537;-72
2022/04/27 14:21:10;;;;;;;14.70;2.10;;;;;;;;;;5053797;28;20453;-73
2022/04/27 14:23:37;;;;;;;12.83;1.90;;;;;;;;;;5053393;28;20442;-72
2022/04/27 14:26:05;;;;;;;13.90;1.90;;;;;;;;;;5053345;28;20461;-72
2022/04/27 14:28:34;;;;;;;15.87;2.30;;;;;;;;;;5053397;28;20482;-72
2022/04/27 14:31:01;;;;;;;15.80;2.00;;;;;;;;;;5053355;28;20455;-72
2022/04/27 14:33:29;;;;;;;12.77;2.10;;;;;;;;;;5053172;28;20454;-72
2022/04/27 14:35:56;;;;;;;16.00;2.10;;;;;;;;;;5052923;28;20501;-72
2022/04/27 14:38:23;;;;;;;13.50;2.23;;;;;;;;;;5053080;28;20951;-72
2022/04/27 14:40:51;;;;;;;15.30;2.87;;;;;;;;;;5053167;28;20529;-71
2022/04/27 14:43:18;;;;;;;13.00;1.90;;;;;;;;;;5053682;28;20451;-72
2022/04/27 14:45:48;;;;;;;13.00;1.90;;;;;;;;;;5053180;28;20454;-72
2022/04/27 14:48:15;;;;;;;15.87;2.03;;;;;;;;;;5053196;28;20442;-72
2022/04/27 14:50:43;;;;;;;24.63;2.40;;;;;;;;;;5052849;28;20795;-72
2022/04/27 14:53:10;;;;;;;14.00;2.40;;;;;;;;;;5052764;28;20433;-72
2022/04/27 14:55:38;;;;;;;14.57;2.60;;;;;;;;;;5052926;28;20479;-72
2022/04/27 14:58:05;;;;;;;18.50;3.67;;;;;;;;;;5052607;28;20466;-72
2022/04/27 15:00:33;;;;;;;14.50;2.50;;;;;;;;;;5052734;28;20450;-71
2022/04/27 15:03:05;;;;;;;12.97;1.73;;;;;;;;;;5052592;28;20504;-71